WetterOnline ( https://www.wetteronline.de )

Wetter aktuell Messina

Aktuelles Wetter: Messina (51m)

6-stündlich | Neueste Meldungen
Ortszeit Temperatur Wetter
Mi, 11.12. 19:00 13.4° C wolkig
Mi, 11.12. 13:00 14.2° C wolkig
Mi, 11.12. 7:00 12.0° C wolkig
Mi, 11.12. 1:00 11.6° C wolkig
Di, 10.12. 19:00 12.4° C wolkig
Di, 10.12. 13:00 14.0° C wolkig
Di, 10.12. 7:00 13.6° C wolkig
Di, 10.12. 1:00 15.0° C wolkig
Ortszeit Temperatur Wetter
Mi, 11.12. 23:00 13.8° C wolkig
Mi, 11.12. 22:55 14° C leicht bewölkt
Mi, 11.12. 22:00 13.8° C wolkig
Mi, 11.12. 21:55 14° C leicht bewölkt
Mi, 11.12. 21:00 13.6° C wolkig
Mi, 11.12. 20:55 14° C leicht bewölkt
Mi, 11.12. 20:00 13.6° C wolkig
Mi, 11.12. 19:55 14° C leicht bewölkt
Mi, 11.12. 19:00 13.4° C wolkig
Ortszeit Relative Feuchte Sichtweite
Mi, 11.12. 19:00 64% 15 km
Mi, 11.12. 13:00 61% 20 km
Mi, 11.12. 7:00 100% 10 km
Mi, 11.12. 1:00 90% 10 km
Di, 10.12. 19:00 91% 12 km
Di, 10.12. 13:00 64% 10 km
Di, 10.12. 7:00 76% 16 km
Di, 10.12. 1:00 87% 16 km
Ortszeit Relative Feuchte Sichtweite
Mi, 11.12. 23:00 60% 10 km
Mi, 11.12. 22:55 59% >10 km
Mi, 11.12. 22:00 62% 10 km
Mi, 11.12. 21:55 63% >10 km
Mi, 11.12. 21:00 65% 10 km
Mi, 11.12. 20:55 63% >10 km
Mi, 11.12. 20:00 64% 10 km
Mi, 11.12. 19:55 63% >10 km
Mi, 11.12. 19:00 64% 15 km
Ortszeit Niederschlagsmenge Niederschlagsart
Mi, 11.12. 19:00 0.1 l/m2 in 12 Std. -
Mi, 11.12. 13:00 0.1 l/m2 in 6 Std. Sprühregen
Mi, 11.12. 7:00 8 l/m2 in 12 Std. Regen
Mi, 11.12. 1:00 2 l/m2 in 6 Std. Regen
Di, 10.12. 19:00 0.0 l/m2 in 12 Std. -
Di, 10.12. 13:00 0.0 l/m2 in 6 Std. Gewitter
Di, 10.12. 7:00 0.3 l/m2 in 12 Std. Regen
Di, 10.12. 1:00 0.1 l/m2 in 6 Std. -
Ortszeit Niederschlagsmenge Niederschlagsart
Mi, 11.12. 23:00 keine Meldung -
Mi, 11.12. 22:55 keine Meldung -
Mi, 11.12. 22:00 keine Meldung -
Mi, 11.12. 21:55 keine Meldung -
Mi, 11.12. 21:00 keine Meldung -
Mi, 11.12. 20:55 keine Meldung -
Mi, 11.12. 20:00 keine Meldung -
Mi, 11.12. 19:55 keine Meldung -
Mi, 11.12. 19:00 keine Meldung -
Ortszeit Stärke Spitze Richtung
km/h Bft. km/h Grad Sektor
Mi, 11.12. 19:00 9 2 - 330° NW
Mi, 11.12. 13:00 9 2 - 20° N
Mi, 11.12. 7:00 6 1 - 310° NW
Mi, 11.12. 1:00 7 2 - 320° NW
Di, 10.12. 19:00 9 2 - 40° NO
Di, 10.12. 13:00 9 2 - 310° NW
Di, 10.12. 7:00 4 1 - 330° NW
Di, 10.12. 1:00 4 1 - - -
Ortszeit Stärke Spitze Richtung
km/h Bft. km/h Grad Sektor
Mi, 11.12. 23:00 13 3 - 320° NW
Mi, 11.12. 22:55 13 3 - 320° NW
Mi, 11.12. 22:00 15 3 - 310° NW
Mi, 11.12. 21:55 15 3 - 310° NW
Mi, 11.12. 21:00 7 2 - 320° NW
Mi, 11.12. 20:55 7 2 - 320° NW
Mi, 11.12. 20:00 7 2 - 350° N
Mi, 11.12. 19:55 7 2 - 350° N
Mi, 11.12. 19:00 9 2 - 330° NW
Ortszeit Untergrenze Bedeckung Gattung
total tief tief mittel hoch
Mi, 11.12. 19:00 1200 m 6/8 4/8 Sc As Ci
Mi, 11.12. 13:00 1050 m 7/8 4/8 Sc As Ci
Mi, 11.12. 7:00 450 m 7/8 5/8 Cb As -
Mi, 11.12. 1:00 600 m 7/8 4/8 Sc As Cs
Di, 10.12. 19:00 900 m 7/8 4/8 Cb As Cs
Di, 10.12. 13:00 900 m 7/8 3/8 Sc - Cs
Di, 10.12. 7:00 750 m 6/8 4/8 Cu As Cs
Di, 10.12. 1:00 600 m 5/8 5/8 Cu - -
Ortszeit Bedeckungsgrad in Achtel und Wolkenuntergrenze
Mi, 11.12. 23:00 4(1200m) 3(2400m)
Mi, 11.12. 22:55 3-4(1200m)
Mi, 11.12. 22:00 4(1200m) 5(2400m)
Mi, 11.12. 21:55 3-4(1200m)
Mi, 11.12. 21:00 4(1200m) 5(2400m)
Mi, 11.12. 20:55 3-4(1200m)
Mi, 11.12. 20:00 4(1200m) 5(2400m)
Mi, 11.12. 19:55 3-4(1200m)
Mi, 11.12. 19:00 4(1200m) 4(2400m)
Ortszeit Luftdruck NN (hPa) Tendenz (hPa in 3 Std.)
Mi, 11.12. 19:00 1008 + 1,0
Mi, 11.12. 13:00 1007 - 0,7
Mi, 11.12. 7:00 1007 0,0
Mi, 11.12. 1:00 1008 0,0
Di, 10.12. 19:00 1007 + 0,2
Di, 10.12. 13:00 1007 - 0,6
Di, 10.12. 7:00 1008 - 0,4
Di, 10.12. 1:00 1010 - 0,8
Ortszeit Luftdruck NN (hPa) Tendenz (hPa in 3 Std.)
Mi, 11.12. 23:00 1008 + 0,2
Mi, 11.12. 22:55 1008 keine Meldung
Mi, 11.12. 22:00 1008 + 0,6
Mi, 11.12. 21:55 1008 keine Meldung
Mi, 11.12. 21:00 1008 + 0,8
Mi, 11.12. 20:55 1008 keine Meldung
Mi, 11.12. 20:00 1008 + 0,9
Mi, 11.12. 19:55 1008 keine Meldung
Mi, 11.12. 19:00 1008 + 1,0
Ortszeit Schneehöhe (cm)
Mi, 11.12. 19:00 -
Mi, 11.12. 13:00 -
Mi, 11.12. 7:00 -
Mi, 11.12. 1:00 -
Di, 10.12. 19:00 -
Di, 10.12. 13:00 -
Di, 10.12. 7:00 0
Di, 10.12. 1:00 -
Ortszeit Schneehöhe (cm)
Mi, 11.12. 23:00 -
Mi, 11.12. 22:55 -
Mi, 11.12. 22:00 -
Mi, 11.12. 21:55 -
Mi, 11.12. 21:00 -
Mi, 11.12. 20:55 -
Mi, 11.12. 20:00 -
Mi, 11.12. 19:55 -
Mi, 11.12. 19:00 -
Link zu dieser Seite / Seite empfehlen

Das Wetter in ...